Terminal Aerodrome Forecast
Issued by NWS

Home | Current Version | Previous Version | Text Only | Print | Product List | Glossary On
Versions: 1 2 3 4 5 6 7 8 9 10 11 12 13
061
FTUS46 KPDT 091740
TAFPSC
TAF
KPSC 091740Z 0918/1018 35004KT P6SM SKC
     FM100300 33004KT P6SM SCT300
     FM100800 VRB03KT 1/2SM FZFG OVC001=

USA.gov is the U.S. government's official web portal to all federal, state and local government web resources and services.